Time;durP1;ratioP1;P1;durP2;ratioP2;P2;SDS_P1;SDS_P2;PMS_P1;PMS_P2;Temp;Humidity;BMP_temperature;BMP_pressure;BME280_temperature;BME280_humidity;BME280_pressure;Samples;Min_cycle;Max_cycle;Signal;HPM_P1;HPM_P2
2023/07/07 00:01:02;;;;;;;11.80;6.13;;;14.80;99.90;;;;;;5046896;28;20030;-74
2023/07/07 00:03:28;;;;;;;11.07;6.88;;;14.80;99.90;;;;;;5047174;28;20022;-72
2023/07/07 00:05:56;;;;;;;10.57;7.28;;;14.70;99.90;;;;;;5046157;28;20032;-73
2023/07/07 00:08:22;;;;;;;10.73;6.85;;;14.70;99.90;;;;;;5044077;28;20025;-72
2023/07/07 00:10:48;;;;;;;11.10;6.65;;;14.60;99.90;;;;;;5046579;28;20044;-72
2023/07/07 00:13:15;;;;;;;11.75;7.65;;;14.70;99.90;;;;;;5046295;28;20088;-71
2023/07/07 00:15:44;;;;;;;13.25;7.63;;;14.60;99.90;;;;;;5046576;28;20048;-71
2023/07/07 00:18:12;;;;;;;13.65;8.40;;;14.50;99.90;;;;;;5046537;28;20026;-72
2023/07/07 00:20:38;;;;;;;12.55;8.55;;;14.50;99.90;;;;;;5046300;28;20033;-72
2023/07/07 00:23:03;;;;;;;15.45;8.50;;;14.50;99.90;;;;;;5046489;28;20044;-73
2023/07/07 00:25:29;;;;;;;13.18;8.20;;;14.50;99.90;;;;;;5046304;28;20053;-73
2023/07/07 00:27:54;;;;;;;13.98;8.70;;;14.50;99.90;;;;;;5046571;28;20030;-72
2023/07/07 00:30:20;;;;;;;13.60;9.32;;;14.50;99.90;;;;;;5044782;28;20029;-73
2023/07/07 00:32:45;;;;;;;14.35;9.82;;;14.40;99.90;;;;;;5044003;28;20022;-72
2023/07/07 00:35:11;;;;;;;12.15;9.27;;;14.40;99.90;;;;;;5045985;28;20056;-72
2023/07/07 00:38:08;;;;;;;15.27;9.57;;;14.40;99.90;;;;;;5045105;28;20036;-73
2023/07/07 00:40:33;;;;;;;14.07;9.25;;;14.40;99.90;;;;;;5043090;28;20276;-73
2023/07/07 00:42:59;;;;;;;13.77;9.65;;;14.40;99.90;;;;;;5046291;28;20029;-73
2023/07/07 00:45:24;;;;;;;15.35;8.82;;;14.40;99.90;;;;;;5046036;28;20033;-71
2023/07/07 00:47:55;;;;;;;12.13;9.02;;;14.40;99.90;;;;;;5045766;28;20025;-72
2023/07/07 00:50:24;;;;;;;10.70;8.82;;;14.40;99.90;;;;;;5044919;28;20017;-72
2023/07/07 00:52:50;;;;;;;14.88;10.13;;;14.30;99.90;;;;;;5045783;28;20494;-72
2023/07/07 00:55:27;;;;;;;13.43;9.85;;;14.40;99.90;;;;;;5045726;28;20056;-72
2023/07/07 00:57:53;;;;;;;16.20;10.60;;;14.30;99.90;;;;;;5044764;28;20033;-72
2023/07/07 01:00:19;;;;;;;15.73;10.52;;;14.30;99.90;;;;;;5045607;28;20029;-71
2023/07/07 01:02:52;;;;;;;17.27;11.18;;;14.30;99.90;;;;;;5044196;28;20032;-72
2023/07/07 01:05:17;;;;;;;17.30;10.82;;;14.30;99.90;;;;;;5044588;28;20029;-72
2023/07/07 01:07:51;;;;;;;21.35;12.57;;;14.30;99.90;;;;;;5045439;28;20085;-73
2023/07/07 01:10:19;;;;;;;14.93;11.68;;;14.20;99.90;;;;;;5045714;28;20029;-72
2023/07/07 01:12:47;;;;;;;16.55;12.10;;;14.20;99.90;;;;;;5045681;28;20060;-71
2023/07/07 01:15:13;;;;;;;15.15;11.23;;;14.20;99.90;;;;;;5045172;28;20025;-72
2023/07/07 01:18:09;;;;;;;16.42;10.95;;;14.20;99.90;;;;;;5044867;28;20030;-73
2023/07/07 01:21:03;;;;;;;18.10;11.98;;;14.20;99.90;;;;;;5045629;28;20470;-72
2023/07/07 01:23:28;;;;;;;18.77;12.32;;;14.20;99.90;;;;;;5043634;28;20513;-72
2023/07/07 01:25:57;;;;;;;13.95;11.20;;;14.20;99.90;;;;;;5045671;28;20025;-72
2023/07/07 01:29:05;;;;;;;14.48;11.35;;;14.10;99.90;;;;;;5045291;28;20041;-71
2023/07/07 01:31:52;;;;;;;16.45;12.25;;;14.10;99.90;;;;;;5045226;28;20466;-72
2023/07/07 01:34:19;;;;;;;16.42;12.23;;;14.10;99.90;;;;;;5044332;28;20029;-72
2023/07/07 01:36:44;;;;;;;19.15;13.07;;;14.10;99.90;;;;;;5045050;28;20022;-71
2023/07/07 01:39:12;;;;;;;15.77;12.98;;;14.10;99.90;;;;;;5043797;28;20069;-71
2023/07/07 01:41:45;;;;;;;19.88;13.82;;;14.10;99.90;;;;;;5044787;28;20052;-73
2023/07/07 01:44:30;;;;;;;18.20;13.55;;;14.10;99.90;;;;;;5042838;28;20025;-72
2023/07/07 01:47:15;;;;;;;18.65;14.32;;;14.10;99.90;;;;;;5045589;28;20534;-72
2023/07/07 01:49:56;;;;;;;22.00;14.70;;;14.10;99.90;;;;;;5045171;28;20081;-71
2023/07/07 01:52:41;;;;;;;23.17;15.68;;;14.00;99.90;;;;;;5044816;28;20037;-72
2023/07/07 01:55:20;;;;;;;23.48;15.05;;;14.00;99.90;;;;;;5044872;28;20034;-72
2023/07/07 01:57:49;;;;;;;23.52;14.30;;;14.10;99.90;;;;;;5044617;28;20040;-71
2023/07/07 02:00:16;;;;;;;22.00;15.82;;;14.00;99.90;;;;;;5045048;28;20556;-73
2023/07/07 02:02:42;;;;;;;22.40;15.32;;;14.10;99.90;;;;;;5044531;28;20026;-72
2023/07/07 02:05:10;;;;;;;22.48;15.30;;;14.10;99.90;;;;;;5044527;28;20085;-72
2023/07/07 02:07:36;;;;;;;20.45;15.50;;;14.00;99.90;;;;;;5044928;28;20029;-72
2023/07/07 02:10:01;;;;;;;22.40;15.55;;;14.00;99.90;;;;;;5043309;28;20076;-72
2023/07/07 02:12:27;;;;;;;22.50;15.20;;;14.00;99.90;;;;;;5044700;28;20041;-72
2023/07/07 02:14:52;;;;;;;20.35;15.60;;;13.90;99.90;;;;;;5044877;28;20026;-71
2023/07/07 02:17:18;;;;;;;20.00;14.90;;;13.90;99.90;;;;;;5044218;28;20037;-71
2023/07/07 02:19:44;;;;;;;17.60;14.57;;;14.00;99.90;;;;;;5043045;28;20140;-71
2023/07/07 02:22:10;;;;;;;19.45;14.48;;;13.80;99.90;;;;;;5044610;28;20102;-72
2023/07/07 02:24:35;;;;;;;18.52;14.60;;;13.80;99.90;;;;;;5042966;28;20076;-73
2023/07/07 02:27:01;;;;;;;20.63;15.45;;;13.70;99.90;;;;;;5044635;28;20037;-72
2023/07/07 02:29:27;;;;;;;21.65;15.18;;;13.70;99.90;;;;;;5044322;28;20049;-73
2023/07/07 02:31:53;;;;;;;19.77;14.40;;;13.70;99.90;;;;;;5044072;28;20108;-71
2023/07/07 02:34:18;;;;;;;20.15;14.50;;;13.70;99.90;;;;;;5044279;28;20042;-73
2023/07/07 02:36:44;;;;;;;19.60;15.48;;;13.70;99.90;;;;;;5044111;28;20040;-72
2023/07/07 02:39:10;;;;;;;19.60;15.05;;;13.60;99.90;;;;;;5043995;28;20053;-71
2023/07/07 02:41:35;;;;;;;20.23;15.20;;;13.60;99.90;;;;;;5043047;28;20025;-72
2023/07/07 02:44:01;;;;;;;20.58;15.55;;;13.70;99.90;;;;;;5044342;28;20486;-71
2023/07/07 02:46:26;;;;;;;21.52;15.50;;;13.70;99.90;;;;;;5044213;28;20428;-72
2023/07/07 02:48:52;;;;;;;26.70;15.07;;;13.70;99.90;;;;;;5043085;28;20056;-72
2023/07/07 02:51:18;;;;;;;22.50;14.30;;;13.80;99.90;;;;;;5044180;28;20382;-72
2023/07/07 02:53:43;;;;;;;19.35;14.05;;;13.80;99.90;;;;;;5043846;28;20033;-72
2023/07/07 02:56:09;;;;;;;19.30;13.90;;;13.80;99.90;;;;;;5044219;28;20029;-73
2023/07/07 02:58:34;;;;;;;19.75;13.63;;;13.90;99.90;;;;;;5043967;28;20029;-72
2023/07/07 03:01:18;;;;;;;17.80;13.35;;;13.90;99.90;;;;;;5044208;28;20404;-73
2023/07/07 03:03:47;;;;;;;22.23;13.82;;;13.70;99.90;;;;;;5044213;28;20044;-71
2023/07/07 03:06:16;;;;;;;23.75;13.15;;;13.80;99.90;;;;;;5042545;28;20029;-72
2023/07/07 03:08:43;;;;;;;22.65;13.13;;;13.80;99.90;;;;;;5044144;28;20033;-72
2023/07/07 03:11:13;;;;;;;17.38;13.00;;;13.70;99.90;;;;;;5043810;28;20064;-72
2023/07/07 03:13:39;;;;;;;18.77;12.45;;;13.70;99.90;;;;;;5042701;28;20037;-73
2023/07/07 03:16:14;;;;;;;15.57;12.57;;;13.70;99.90;;;;;;5024786;28;20033;-69
2023/07/07 03:18:40;;;;;;;19.98;13.05;;;13.60;99.90;;;;;;5043849;28;20061;-69
2023/07/07 03:21:07;;;;;;;21.95;13.35;;;13.60;99.90;;;;;;5043759;28;20374;-69
2023/07/07 03:23:33;;;;;;;19.50;13.52;;;13.70;99.90;;;;;;5043802;28;20489;-70
2023/07/07 03:26:11;;;;;;;19.52;13.48;;;13.60;99.90;;;;;;5043959;28;20034;-71
2023/07/07 03:28:37;;;;;;;18.42;13.32;;;13.60;99.90;;;;;;5043191;28;20064;-71
2023/07/07 03:31:12;;;;;;;23.30;14.23;;;13.70;99.90;;;;;;5043880;28;20044;-71
2023/07/07 03:33:44;;;;;;;19.30;13.63;;;13.70;99.90;;;;;;5043791;28;20075;-70
2023/07/07 03:36:12;;;;;;;19.85;13.88;;;13.70;99.90;;;;;;5043360;28;20022;-70
2023/07/07 03:38:39;;;;;;;18.98;13.40;;;13.70;99.90;;;;;;5043399;28;20032;-70
2023/07/07 03:41:06;;;;;;;20.15;13.18;;;13.70;99.90;;;;;;5043490;28;20050;-69
2023/07/07 03:43:33;;;;;;;19.90;13.77;;;13.70;99.90;;;;;;5028966;28;20029;-70
2023/07/07 03:46:02;;;;;;;20.63;13.52;;;13.70;99.90;;;;;;5047338;28;20025;-72
2023/07/07 03:48:28;;;;;;;23.17;13.27;;;13.80;99.90;;;;;;5044426;28;20060;-70
2023/07/07 03:51:02;;;;;;;23.05;14.00;;;13.70;99.90;;;;;;5046528;28;20113;-70
2023/07/07 03:53:29;;;;;;;;;;;13.60;99.90;;;;;;5044537;28;20036;-70
2023/07/07 03:55:55;;;;;;;17.70;13.05;;;13.70;99.90;;;;;;5046847;28;19911;-70
2023/07/07 03:58:22;;;;;;;18.60;13.10;;;13.70;99.90;;;;;;5046015;28;20057;-70
2023/07/07 04:00:48;;;;;;;19.13;13.45;;;13.70;99.90;;;;;;5046614;28;20026;-70
2023/07/07 04:03:15;;;;;;;19.50;13.60;;;13.70;99.90;;;;;;5046228;28;20021;-70
2023/07/07 04:05:49;;;;;;;18.40;13.70;;;13.80;99.90;;;;;;5046558;28;20022;-73
2023/07/07 04:08:22;;;;;;;22.58;13.60;;;13.80;99.90;;;;;;5028774;28;20032;-69
2023/07/07 04:11:04;;;;;;;18.45;13.48;;;13.80;99.90;;;;;;5046411;28;20044;-70
2023/07/07 04:13:33;;;;;;;19.73;13.27;;;13.80;99.90;;;;;;5046312;28;20108;-70
2023/07/07 04:16:03;;;;;;;18.75;14.60;;;13.90;99.90;;;;;;5046542;28;20544;-70
2023/07/07 04:18:31;;;;;;;22.85;14.35;;;13.80;99.90;;;;;;5046396;28;20029;-69
2023/07/07 04:21:06;;;;;;;21.83;14.85;;;13.90;99.90;;;;;;5028859;28;20040;-69
2023/07/07 04:23:39;;;;;;;22.17;13.90;;;13.90;99.90;;;;;;5046368;28;20026;-69
2023/07/07 04:26:07;;;;;;;24.50;14.90;;;13.90;99.90;;;;;;5046123;28;20029;-69
2023/07/07 04:28:35;;;;;;;20.15;14.15;;;13.90;99.90;;;;;;5028185;28;20322;-71
2023/07/07 04:31:03;;;;;;;25.10;15.05;;;14.00;99.90;;;;;;5045849;28;20037;-69
2023/07/07 04:33:30;;;;;;;19.73;13.60;;;14.00;99.90;;;;;;5045903;28;20022;-69
2023/07/07 04:35:59;;;;;;;18.92;13.95;;;14.00;99.90;;;;;;5046335;28;20033;-70
2023/07/07 04:38:32;;;;;;;23.67;14.30;;;14.00;99.90;;;;;;5045928;28;20029;-69
2023/07/07 04:41:04;;;;;;;19.98;14.60;;;14.00;99.90;;;;;;5046170;28;20124;-69
2023/07/07 04:43:31;;;;;;;22.98;14.85;;;14.00;99.90;;;;;;5045842;28;20025;-69
2023/07/07 04:45:56;;;;;;;21.77;14.55;;;14.00;99.90;;;;;;5028603;28;20021;-70
2023/07/07 04:48:22;;;;;;;22.60;15.60;;;14.00;99.90;;;;;;5045870;28;20099;-69
2023/07/07 04:50:48;;;;;;;23.83;15.07;;;14.10;99.90;;;;;;5045091;28;20081;-69
2023/07/07 04:53:14;;;;;;;21.65;14.63;;;14.10;99.90;;;;;;5044561;28;20037;-70
2023/07/07 04:55:43;;;;;;;20.80;13.25;;;14.10;99.90;;;;;;5045635;28;20026;-69
2023/07/07 04:58:09;;;;;;;22.75;15.43;;;14.20;99.90;;;;;;5041705;28;20052;-69
2023/07/07 05:00:34;;;;;;;23.52;15.38;;;14.10;99.90;;;;;;5045718;28;20487;-71
2023/07/07 05:03:00;;;;;;;23.83;15.48;;;14.20;99.90;;;;;;5045545;28;20086;-69
2023/07/07 05:05:25;;;;;;;21.38;14.77;;;14.20;99.90;;;;;;5045927;28;20097;-69
2023/07/07 05:07:51;;;;;;;23.95;14.88;;;14.20;99.90;;;;;;5045751;28;20032;-68
2023/07/07 05:10:16;;;;;;;19.17;14.88;;;14.20;99.90;;;;;;5045049;28;20040;-69
2023/07/07 05:12:42;;;;;;;22.92;15.55;;;14.20;99.90;;;;;;5044655;28;20160;-69
2023/07/07 05:15:08;;;;;;;22.65;15.68;;;14.20;99.90;;;;;;5045593;28;20033;-68
2023/07/07 05:17:33;;;;;;;24.75;15.38;;;14.30;99.90;;;;;;5045002;28;20032;-68
2023/07/07 05:19:59;;;;;;;22.27;15.45;;;14.30;99.90;;;;;;5045171;28;20029;-69
2023/07/07 05:22:25;;;;;;;22.20;15.00;;;14.30;99.90;;;;;;5044581;28;20026;-68
2023/07/07 05:24:50;;;;;;;25.13;15.05;;;14.40;99.90;;;;;;5044402;28;20060;-68
2023/07/07 05:27:16;;;;;;;21.05;15.02;;;14.40;99.90;;;;;;5043967;28;20030;-69
2023/07/07 05:29:41;;;;;;;20.20;14.60;;;14.40;99.90;;;;;;5044141;28;20038;-68
2023/07/07 05:32:07;;;;;;;21.40;14.63;;;14.40;99.90;;;;;;5044486;28;20091;-68
2023/07/07 05:34:33;;;;;;;19.20;14.63;;;14.40;99.90;;;;;;5044890;28;20018;-69
2023/07/07 05:36:58;;;;;;;22.38;14.32;;;14.50;99.90;;;;;;5045282;28;20368;-69
2023/07/07 05:39:24;;;;;;;18.98;14.45;;;14.50;99.90;;;;;;5044736;28;20058;-67
2023/07/07 05:41:49;;;;;;;22.27;14.88;;;14.50;99.90;;;;;;5026810;28;20092;-68
2023/07/07 05:44:15;;;;;;;20.88;16.27;;;14.60;99.90;;;;;;5045011;28;20048;-69
2023/07/07 05:46:40;;;;;;;20.90;15.48;;;14.70;99.90;;;;;;5044830;28;20033;-68
2023/07/07 05:49:06;;;;;;;19.85;14.77;;;14.70;99.90;;;;;;5044931;28;20037;-68
2023/07/07 05:51:31;;;;;;;19.00;15.77;;;14.70;99.90;;;;;;5044991;28;20068;-69
2023/07/07 05:53:57;;;;;;;25.35;16.27;;;14.80;99.90;;;;;;5044576;28;20152;-69
2023/07/07 05:56:24;;;;;;;22.13;14.90;;;14.80;99.90;;;;;;5044726;28;20033;-68
2023/07/07 05:58:51;;;;;;;24.27;15.73;;;14.90;99.90;;;;;;5044504;28;20037;-69
2023/07/07 06:01:17;;;;;;;21.58;16.35;;;14.90;99.90;;;;;;5044281;28;20022;-68
2023/07/07 06:03:43;;;;;;;24.75;16.35;;;14.90;99.90;;;;;;5043890;28;20057;-68
2023/07/07 06:06:09;;;;;;;24.83;16.23;;;15.00;99.90;;;;;;5026974;28;20462;-68
2023/07/07 06:08:34;;;;;;;21.77;16.00;;;15.10;99.90;;;;;;5044363;28;20128;-67
2023/07/07 06:11:00;;;;;;;20.85;16.13;;;15.10;99.90;;;;;;5044520;28;20064;-68
2023/07/07 06:13:28;;;;;;;22.48;16.42;;;15.20;99.90;;;;;;5044283;28;20025;-69
2023/07/07 06:15:54;;;;;;;20.52;15.80;;;15.20;99.90;;;;;;5044556;28;20032;-69
2023/07/07 06:18:21;;;;;;;24.50;17.23;;;15.30;99.90;;;;;;5044436;28;20037;-69
2023/07/07 06:20:48;;;;;;;23.52;17.35;;;15.30;99.90;;;;;;5043784;28;20482;-68
2023/07/07 06:23:14;;;;;;;24.70;15.43;;;15.50;99.90;;;;;;5044395;28;20032;-69
2023/07/07 06:25:39;;;;;;;24.25;16.02;;;15.50;99.90;;;;;;5044429;28;20109;-67
2023/07/07 06:28:05;;;;;;;23.92;16.85;;;15.60;99.90;;;;;;5044026;28;20030;-70
2023/07/07 06:30:30;;;;;;;23.98;15.45;;;15.60;99.90;;;;;;5044023;28;20048;-70
2023/07/07 06:32:58;;;;;;;21.52;15.68;;;15.80;99.90;;;;;;5044574;28;20025;-68
2023/07/07 06:35:25;;;;;;;21.17;16.25;;;15.90;99.90;;;;;;5029657;28;20040;-68
2023/07/07 06:37:50;;;;;;;23.35;15.98;;;16.00;99.90;;;;;;5064209;28;20035;-67
2023/07/07 06:40:16;;;;;;;26.45;17.27;;;16.10;99.90;;;;;;5063837;28;20057;-69
2023/07/07 06:42:41;;;;;;;23.40;15.98;;;16.10;99.90;;;;;;5063417;28;20033;-69
2023/07/07 06:45:08;;;;;;;20.35;16.33;;;16.30;99.90;;;;;;5064058;28;20115;-68
2023/07/07 06:47:33;;;;;;;20.02;15.70;;;16.40;99.90;;;;;;5064364;28;20045;-69
2023/07/07 06:49:59;;;;;;;24.08;14.88;;;16.50;99.90;;;;;;5063131;28;20032;-70
2023/07/07 06:52:25;;;;;;;20.30;15.88;;;16.50;99.90;;;;;;5064034;28;20037;-68
2023/07/07 06:54:54;;;;;;;24.52;14.45;;;16.70;99.90;;;;;;5063946;28;20040;-68
2023/07/07 06:57:20;;;;;;;20.35;15.23;;;16.70;99.90;;;;;;5063701;28;20021;-67
2023/07/07 06:59:46;;;;;;;17.83;14.07;;;16.80;99.90;;;;;;5064197;28;20032;-68
2023/07/07 07:02:13;;;;;;;22.13;14.43;;;16.90;99.90;;;;;;5063675;28;20033;-68
2023/07/07 07:04:39;;;;;;;22.05;15.55;;;17.10;99.90;;;;;;5063118;28;20104;-69
2023/07/07 07:07:07;;;;;;;22.85;15.70;;;17.10;99.90;;;;;;5063937;28;20056;-68
2023/07/07 07:09:32;;;;;;;18.95;15.45;;;17.30;99.90;;;;;;5063763;28;20025;-69
2023/07/07 07:11:58;;;;;;;17.02;12.10;;;17.40;99.90;;;;;;5049497;28;20041;-69
2023/07/07 07:14:24;;;;;;;18.65;12.82;;;17.40;99.90;;;;;;5044103;28;20075;-68
2023/07/07 07:16:49;;;;;;;19.70;12.90;;;17.50;99.90;;;;;;5046469;28;20030;-67
2023/07/07 07:19:15;;;;;;;21.05;12.13;;;17.70;99.90;;;;;;5047358;28;20025;-67
2023/07/07 07:21:41;;;;;;;15.93;11.57;;;17.80;99.90;;;;;;5047706;28;20444;-69
2023/07/07 07:24:06;;;;;;;16.02;10.52;;;17.90;99.90;;;;;;5047239;28;20017;-69
2023/07/07 07:26:32;;;;;;;17.23;12.50;;;18.00;99.90;;;;;;5047609;28;20029;-69
2023/07/07 07:28:58;;;;;;;16.70;11.93;;;18.10;99.90;;;;;;5047938;28;20041;-68
2023/07/07 07:31:23;;;;;;;19.02;10.73;;;18.10;99.90;;;;;;5047093;28;20043;-68
2023/07/07 07:33:51;;;;;;;21.25;12.23;;;18.30;99.90;;;;;;5046677;28;20049;-68
2023/07/07 07:36:16;;;;;;;17.17;10.70;;;18.40;99.90;;;;;;5047550;28;20434;-68
2023/07/07 07:38:42;;;;;;;22.40;11.40;;;18.40;99.90;;;;;;5046443;28;20055;-68
2023/07/07 07:41:07;;;;;;;15.90;10.25;;;18.50;99.90;;;;;;5045397;28;20049;-69
2023/07/07 07:43:33;;;;;;;18.75;9.75;;;18.60;99.90;;;;;;5046468;28;20034;-67
2023/07/07 07:45:59;;;;;;;18.60;10.45;;;18.70;99.90;;;;;;5041869;28;20026;-68
2023/07/07 07:48:24;;;;;;;14.70;7.95;;;18.80;99.90;;;;;;5037430;28;20036;-66
2023/07/07 07:50:50;;;;;;;12.52;8.48;;;18.90;99.90;;;;;;5038139;28;20041;-68
2023/07/07 07:53:16;;;;;;;10.38;7.63;;;18.90;99.90;;;;;;5036902;28;20033;-66
2023/07/07 07:55:41;;;;;;;18.95;8.82;;;19.00;99.90;;;;;;5036019;28;20018;-67
2023/07/07 07:58:07;;;;;;;11.95;7.93;;;19.10;99.90;;;;;;5039216;28;20029;-68
2023/07/07 08:00:32;;;;;;;11.82;7.70;;;19.20;99.90;;;;;;5043279;28;20025;-68
2023/07/07 08:02:59;;;;;;;15.63;7.82;;;19.30;99.90;;;;;;5042797;28;20056;-68
2023/07/07 08:05:24;;;;;;;11.45;7.95;;;19.40;99.90;;;;;;5046770;28;20100;-68
2023/07/07 08:07:50;;;;;;;16.92;8.20;;;19.50;99.90;;;;;;5042313;28;20037;-67
2023/07/07 08:10:16;;;;;;;12.00;7.00;;;19.60;99.90;;;;;;5041662;28;20087;-66
2023/07/07 08:12:42;;;;;;;15.90;7.38;;;19.70;99.90;;;;;;5043623;28;20384;-67
2023/07/07 08:15:10;;;;;;;13.27;6.70;;;19.80;99.90;;;;;;5036836;28;20029;-67
2023/07/07 08:17:36;;;;;;;13.25;7.35;;;19.90;99.90;;;;;;5043012;28;20044;-69
2023/07/07 08:20:02;;;;;;;14.50;7.57;;;19.90;99.90;;;;;;5044202;28;20037;-67
2023/07/07 08:22:29;;;;;;;9.55;6.00;;;20.00;99.90;;;;;;5035165;28;20025;-67
2023/07/07 08:24:56;;;;;;;11.38;6.07;;;20.10;99.90;;;;;;5045390;28;20075;-66
2023/07/07 08:27:23;;;;;;;9.65;5.75;;;20.20;99.90;;;;;;5043269;28;20035;-66
2023/07/07 08:29:49;;;;;;;9.82;5.88;;;20.30;99.90;;;;;;5040843;28;20034;-67
2023/07/07 08:32:18;;;;;;;10.88;4.60;;;20.40;99.90;;;;;;5045417;28;20597;-66
2023/07/07 08:34:44;;;;;;;13.30;4.45;;;20.50;99.90;;;;;;5037430;28;20029;-67
2023/07/07 08:37:10;;;;;;;13.98;5.03;;;20.60;99.90;;;;;;5046088;28;20028;-66
2023/07/07 08:39:36;;;;;;;12.18;4.53;;;20.70;99.90;;;;;;5043804;28;20056;-68
2023/07/07 08:42:11;;;;;;;9.40;4.45;;;20.70;99.90;;;;;;5051373;28;20072;-67
2023/07/07 08:44:37;;;;;;;13.20;4.90;;;20.80;99.90;;;;;;5040904;28;20040;-67
2023/07/07 08:47:15;;;;;;;12.63;4.63;;;20.90;99.90;;;;;;5044691;28;20030;-68
2023/07/07 08:50:00;;;;;;;11.23;4.10;;;21.00;99.90;;;;;;5045425;28;20045;-68
2023/07/07 08:52:55;;;;;;;9.00;3.67;;;21.00;99.90;;;;;;5044789;28;20045;-67
2023/07/07 08:55:48;;;;;;;11.52;3.65;;;21.10;99.90;;;;;;5043129;28;20048;-67
2023/07/07 08:58:40;;;;;;;7.57;3.05;;;21.20;99.90;;;;;;5041594;28;20065;-67
2023/07/07 09:01:18;;;;;;;6.75;3.08;;;21.20;99.90;;;;;;5038731;28;20076;-67
2023/07/07 09:03:52;;;;;;;7.72;2.85;;;21.30;99.90;;;;;;5040914;28;20048;-67
2023/07/07 09:06:50;;;;;;;9.30;2.90;;;21.30;99.90;;;;;;5021502;28;20037;-67
2023/07/07 09:09:43;;;;;;;8.30;3.85;;;21.40;99.90;;;;;;5037142;28;20041;-69
2023/07/07 09:12:20;;;;;;;8.25;3.30;;;21.70;99.90;;;;;;5032626;28;20050;-66
2023/07/07 09:14:49;;;;;;;9.10;2.70;;;21.80;99.90;;;;;;5035352;28;20498;-66
2023/07/07 09:17:38;;;;;;;9.60;3.40;;;21.90;99.90;;;;;;5034856;28;20564;-67
2023/07/07 09:20:05;;;;;;;8.15;3.40;;;22.00;99.90;;;;;;5025178;28;20026;-66
2023/07/07 09:22:43;;;;;;;5.47;2.58;;;22.10;99.90;;;;;;5042475;28;20021;-67
2023/07/07 09:25:42;;;;;;;5.25;2.90;;;22.20;99.90;;;;;;5032738;28;20491;-66
2023/07/07 09:28:11;;;;;;;5.47;2.83;;;22.30;99.90;;;;;;5042808;28;20449;-67
2023/07/07 09:31:06;;;;;;;6.30;2.70;;;22.30;99.90;;;;;;5040364;28;20593;-69
2023/07/07 09:33:32;;;;;;;8.38;3.28;;;22.40;99.90;;;;;;5040120;28;20033;-68
2023/07/07 09:36:01;;;;;;;9.75;3.63;;;22.50;99.90;;;;;;5025774;28;20037;-69
2023/07/07 09:39:07;;;;;;;9.07;3.25;;;22.60;99.90;;;;;;5029964;28;20124;-69
2023/07/07 09:42:06;;;;;;;11.15;3.25;;;22.60;99.90;;;;;;4964552;28;20077;-68
2023/07/07 09:44:59;;;;;;;7.47;3.45;;;22.70;99.90;;;;;;5040626;28;20088;-69
2023/07/07 09:47:27;;;;;;;13.00;3.38;;;22.80;99.90;;;;;;5027652;28;20092;-67
2023/07/07 09:50:05;;;;;;;8.75;3.22;;;22.80;99.90;;;;;;5042301;28;20037;-68
2023/07/07 09:53:00;;;;;;;8.95;3.53;;;22.80;99.90;;;;;;5043167;28;20041;-67
2023/07/07 09:55:36;;;;;;;7.00;3.25;;;22.80;99.90;;;;;;5043696;28;20055;-67
2023/07/07 09:58:20;;;;;;;7.85;3.75;;;22.80;99.90;;;;;;5044322;28;20033;-69
2023/07/07 10:00:48;;;;;;;;;;;22.80;99.90;;;;;;5044554;28;20025;-68
2023/07/07 10:03:26;;;;;;;7.20;3.17;;;22.90;99.90;;;;;;5044796;28;19986;-67
2023/07/07 10:05:54;;;;;;;8.13;3.40;;;22.90;99.90;;;;;;5044309;28;20744;-65
2023/07/07 10:08:19;;;;;;;7.95;3.38;;;23.00;99.90;;;;;;5044499;28;20034;-67
2023/07/07 10:10:54;;;;;;;6.55;3.40;;;23.10;99.90;;;;;;5044254;28;20087;-68
2023/07/07 10:13:21;;;;;;;7.90;3.10;;;23.20;99.90;;;;;;5044093;28;20128;-68
2023/07/07 10:15:58;;;;;;;7.40;3.20;;;23.30;99.90;;;;;;5044500;28;20053;-67
2023/07/07 10:18:27;;;;;;;5.65;3.00;;;23.40;99.90;;;;;;5044437;28;20021;-68
2023/07/07 10:20:57;;;;;;;7.93;3.75;;;23.50;99.90;;;;;;5044124;28;20029;-68
2023/07/07 10:23:28;;;;;;;6.78;3.55;;;23.50;99.90;;;;;;5044642;28;20053;-69
2023/07/07 10:25:54;;;;;;;5.97;3.22;;;23.60;99.90;;;;;;5044613;28;20028;-69
2023/07/07 10:28:20;;;;;;;7.13;3.35;;;23.60;99.90;;;;;;5044101;28;20105;-67
2023/07/07 10:30:47;;;;;;;6.75;3.22;;;23.60;99.90;;;;;;5044213;28;20025;-67
2023/07/07 10:33:16;;;;;;;9.95;3.47;;;23.70;99.90;;;;;;5044000;28;20048;-67
2023/07/07 10:35:43;;;;;;;6.43;3.17;;;23.80;99.90;;;;;;5043978;28;20029;-66
2023/07/07 10:38:10;;;;;;;5.95;3.40;;;23.80;99.90;;;;;;5043293;28;20017;-68
2023/07/07 10:40:37;;;;;;;8.63;3.05;;;23.90;99.90;;;;;;5043646;28;20048;-69
2023/07/07 10:43:05;;;;;;;8.60;3.40;;;24.00;99.90;;;;;;5044256;28;20025;-68
2023/07/07 10:45:31;;;;;;;7.45;3.15;;;24.10;99.90;;;;;;5044182;28;20026;-67
2023/07/07 10:47:56;;;;;;;7.03;3.20;;;24.10;99.90;;;;;;5044061;28;20034;-66
2023/07/07 10:50:27;;;;;;;9.63;3.72;;;24.20;99.90;;;;;;5044683;28;20025;-68
2023/07/07 10:53:02;;;;;;;11.98;3.42;;;24.20;99.90;;;;;;5048329;28;20486;-69
2023/07/07 10:55:57;;;;;;;7.85;3.13;;;24.20;99.90;;;;;;5048146;28;20490;-68
2023/07/07 10:58:35;;;;;;;9.40;3.50;;;24.10;99.90;;;;;;5048255;28;20029;-67
2023/07/07 11:01:06;;;;;;;8.35;3.50;;;24.20;99.90;;;;;;5048098;28;20086;-70
2023/07/07 11:03:51;;;;;;;11.93;3.50;;;24.20;99.90;;;;;;5047697;28;20026;-70
2023/07/07 11:06:33;;;;;;;8.57;3.53;;;24.20;99.90;;;;;;5047974;28;20029;-67
2023/07/07 11:09:29;;;;;;;5.70;3.10;;;24.30;99.90;;;;;;5048093;28;20021;-68
2023/07/07 11:12:15;;;;;;;8.63;3.42;;;24.30;99.90;;;;;;5012832;28;20577;-67
2023/07/07 11:15:01;;;;;;;8.27;3.60;;;24.40;99.90;;;;;;5047629;28;20104;-68
2023/07/07 11:17:48;;;;;;;7.97;3.28;;;24.50;99.90;;;;;;5048227;28;20041;-67
2023/07/07 11:20:23;;;;;;;7.82;3.63;;;24.50;99.90;;;;;;5047728;28;20033;-67
2023/07/07 11:23:08;;;;;;;5.95;3.10;;;24.70;99.90;;;;;;5047273;28;20026;-67
2023/07/07 11:25:59;;;;;;;5.78;3.42;;;24.70;99.90;;;;;;5047606;28;20025;-69
2023/07/07 11:28:50;;;;;;;8.55;3.25;;;24.80;99.90;;;;;;5047684;28;20026;-68
2023/07/07 11:31:42;;;;;;;7.28;3.42;;;25.00;99.90;;;;;;5047065;28;20437;-67
2023/07/07 11:34:29;;;;;;;5.47;3.38;;;25.20;99.90;;;;;;5047705;28;20052;-68
2023/07/07 11:37:12;;;;;;;9.80;3.70;;;25.30;99.90;;;;;;5047444;28;20039;-68
2023/07/07 11:40:04;;;;;;;8.32;3.50;;;25.40;99.90;;;;;;5046882;28;20071;-68
2023/07/07 11:42:45;;;;;;;6.72;3.30;;;25.60;99.90;;;;;;5047378;28;20022;-70
2023/07/07 11:45:26;;;;;;;8.57;3.38;;;25.80;99.90;;;;;;5047300;28;20034;-67
2023/07/07 11:48:29;;;;;;;7.18;3.17;;;26.00;99.90;;;;;;5029587;28;20021;-76
2023/07/07 11:51:00;;;;;;;8.55;2.97;;;26.10;99.90;;;;;;5046723;28;20033;-67
2023/07/07 11:53:50;;;;;;;9.25;3.55;;;26.10;99.90;;;;;;5047126;28;20085;-68
2023/07/07 11:56:46;;;;;;;4.15;2.97;;;26.20;99.90;;;;;;5047102;28;20475;-68
2023/07/07 11:59:36;;;;;;;9.13;3.60;;;26.30;99.90;;;;;;5041635;28;20483;-69
2023/07/07 12:02:05;;;;;;;5.93;3.42;;;26.30;99.90;;;;;;5046799;28;20030;-68
2023/07/07 12:04:38;;;;;;;7.38;3.38;;;26.30;99.90;;;;;;5047100;28;20021;-69
2023/07/07 12:07:09;;;;;;;5.60;3.50;;;26.30;99.90;;;;;;5046804;28;20018;-68
2023/07/07 12:09:42;;;;;;;9.27;3.60;;;26.40;99.90;;;;;;5046852;28;20033;-69
2023/07/07 12:12:13;;;;;;;10.32;3.30;;;26.40;99.90;;;;;;5046479;28;20160;-69
2023/07/07 12:15:04;;;;;;;6.90;3.40;;;26.40;99.90;;;;;;5046648;28;20089;-67
2023/07/07 12:17:36;;;;;;;5.40;3.60;;;26.40;99.90;;;;;;5046281;28;20075;-68
2023/07/07 12:20:14;;;;;;;7.57;3.53;;;26.50;99.90;;;;;;5046495;28;20076;-69
2023/07/07 12:22:40;;;;;;;7.57;3.15;;;26.60;99.90;;;;;;5046623;28;20471;-69
2023/07/07 12:25:12;;;;;;;6.38;3.78;;;26.70;99.90;;;;;;5046472;28;20057;-67
2023/07/07 12:27:51;;;;;;;8.70;3.63;;;26.80;99.90;;;;;;5046190;28;20039;-68
2023/07/07 12:30:44;;;;;;;7.95;3.40;;;26.70;99.90;;;;;;5038516;28;20025;-67
2023/07/07 12:33:12;;;;;;;6.32;3.45;;;26.70;99.90;;;;;;5027034;28;20065;-67
2023/07/07 12:35:53;;;;;;;5.78;3.22;;;26.70;99.90;;;;;;5035195;28;20040;-67
2023/07/07 12:38:27;;;;;;;6.25;3.75;;;26.70;99.90;;;;;;5043275;28;20029;-69
2023/07/07 12:40:56;;;;;;;6.65;3.25;;;26.80;99.90;;;;;;5041959;28;20068;-68
2023/07/07 12:43:37;;;;;;;5.53;3.42;;;26.80;99.90;;;;;;5044631;28;20033;-68
2023/07/07 12:46:28;;;;;;;9.30;3.17;;;26.90;99.90;;;;;;5043903;28;20116;-68
2023/07/07 12:48:58;;;;;;;6.38;4.07;;;26.90;99.90;;;;;;5042897;28;20041;-68
2023/07/07 12:51:24;;;;;;;8.35;3.83;;;27.10;99.90;;;;;;5045266;28;20041;-69
2023/07/07 12:53:53;;;;;;;9.00;3.85;;;27.20;99.90;;;;;;5042251;28;20097;-69
2023/07/07 12:56:21;;;;;;;5.18;3.38;;;27.20;99.90;;;;;;5037545;28;20710;-67